createdAt,value
2018-01-05T00:01:20.539Z,14.03
2018-01-05T00:03:47.105Z,14.43
2018-01-05T00:06:13.527Z,12.57
2018-01-05T00:08:39.955Z,13.17
2018-01-05T00:11:06.502Z,13.73
2018-01-05T00:13:32.907Z,13.77
2018-01-05T00:15:59.427Z,13.07
2018-01-05T00:18:25.869Z,13.97
2018-01-05T00:20:52.279Z,16.50
2018-01-05T00:23:18.668Z,14.97
2018-01-05T00:25:45.099Z,14.97
2018-01-05T00:28:11.611Z,16.13
2018-01-05T00:30:38.009Z,15.37
2018-01-05T00:33:04.411Z,15.27
2018-01-05T00:35:30.964Z,15.63
2018-01-05T00:37:57.422Z,15.07
2018-01-05T00:40:23.911Z,15.00
2018-01-05T00:42:50.358Z,16.53
2018-01-05T00:45:16.727Z,15.77
2018-01-05T00:47:43.123Z,16.17
2018-01-05T00:50:09.581Z,16.10
2018-01-05T00:52:35.956Z,15.80
2018-01-05T00:55:02.399Z,15.57
2018-01-05T00:57:28.828Z,16.07
2018-01-05T00:59:55.239Z,16.60
2018-01-05T01:02:21.644Z,17.07
2018-01-05T01:04:48.147Z,16.50
2018-01-05T01:07:14.573Z,17.47
2018-01-05T01:09:40.976Z,17.40
2018-01-05T01:12:07.437Z,16.70
2018-01-05T01:14:33.846Z,16.80
2018-01-05T01:17:00.324Z,17.97
2018-01-05T01:19:26.657Z,18.20
2018-01-05T01:21:53.063Z,17.83
2018-01-05T01:24:19.572Z,18.57
2018-01-05T01:26:46.000Z,17.03
2018-01-05T01:29:12.469Z,44.03
2018-01-05T01:31:38.912Z,32.20
2018-01-05T01:34:05.376Z,30.70
2018-01-05T01:36:31.856Z,26.93
2018-01-05T01:38:58.344Z,30.77
2018-01-05T01:41:24.775Z,28.80
2018-01-05T01:43:51.215Z,28.63
2018-01-05T01:46:17.695Z,28.27
2018-01-05T01:48:49.285Z,26.43
2018-01-05T01:51:15.717Z,24.33
2018-01-05T01:53:42.168Z,24.20
2018-01-05T01:56:08.736Z,22.77
2018-01-05T01:58:35.123Z,22.90
2018-01-05T02:01:01.576Z,21.73
2018-01-05T02:03:27.980Z,21.10
2018-01-05T02:05:54.418Z,22.37
2018-01-05T02:08:20.853Z,21.13
2018-01-05T02:10:47.292Z,21.73
2018-01-05T02:13:13.704Z,22.07
2018-01-05T02:15:40.101Z,19.83
2018-01-05T02:18:06.491Z,20.33
2018-01-05T02:20:32.933Z,20.37
2018-01-05T02:22:59.344Z,19.70
2018-01-05T02:25:25.768Z,19.73
2018-01-05T02:27:52.143Z,19.73
2018-01-05T02:30:18.597Z,20.00
2018-01-05T02:32:45.013Z,18.30
2018-01-05T02:35:11.435Z,20.03
2018-01-05T02:37:37.851Z,18.83
2018-01-05T02:40:04.279Z,18.47
2018-01-05T02:42:30.796Z,20.63
2018-01-05T02:44:57.301Z,20.37
2018-01-05T02:47:23.723Z,21.23
2018-01-05T02:49:50.136Z,19.67
2018-01-05T02:52:16.609Z,20.97
2018-01-05T02:54:43.007Z,21.87
2018-01-05T02:57:09.392Z,18.97
2018-01-05T02:59:35.795Z,19.20
2018-01-05T03:02:02.231Z,20.53
2018-01-05T03:04:28.691Z,18.77
2018-01-05T03:06:55.123Z,15.97
2018-01-05T03:09:21.588Z,16.57
2018-01-05T03:11:48.039Z,14.80
2018-01-05T03:14:14.499Z,14.73
2018-01-05T03:16:40.955Z,15.23
2018-01-05T03:19:07.347Z,13.60
2018-01-05T03:21:33.815Z,15.27
2018-01-05T03:24:00.236Z,14.83
2018-01-05T03:26:26.631Z,14.30
2018-01-05T03:28:53.055Z,14.83
2018-01-05T03:31:19.437Z,15.57
2018-01-05T03:33:45.963Z,15.73
2018-01-05T03:36:12.363Z,16.80
2018-01-05T03:38:38.761Z,16.37
2018-01-05T03:41:05.163Z,15.03
2018-01-05T03:43:31.654Z,15.50
2018-01-05T03:45:58.033Z,16.30
2018-01-05T03:48:24.432Z,21.87
2018-01-05T03:50:50.900Z,27.07
2018-01-05T03:53:17.320Z,35.50
2018-01-05T03:55:43.746Z,31.70
2018-01-05T03:58:10.204Z,30.93
2018-01-05T04:00:38.408Z,28.80
2018-01-05T04:03:04.884Z,25.90
2018-01-05T04:05:31.357Z,24.07
2018-01-05T04:07:57.718Z,21.87
2018-01-05T04:10:24.137Z,19.30
2018-01-05T04:12:50.604Z,18.93
2018-01-05T04:15:17.059Z,15.97
2018-01-05T04:17:43.535Z,14.03
2018-01-05T04:20:09.916Z,12.80
2018-01-05T04:22:36.532Z,11.73
2018-01-05T04:25:03.076Z,12.37
2018-01-05T04:27:29.568Z,11.93
2018-01-05T04:29:56.038Z,13.50
2018-01-05T04:32:22.435Z,13.53
2018-01-05T04:34:48.844Z,14.73
2018-01-05T04:37:15.359Z,15.87
2018-01-05T04:39:41.937Z,16.27
2018-01-05T04:42:08.454Z,15.90
2018-01-05T04:44:34.852Z,17.00
2018-01-05T04:47:01.196Z,15.77
2018-01-05T04:49:27.700Z,15.20
2018-01-05T04:51:54.035Z,14.33
2018-01-05T04:54:20.431Z,13.40
2018-01-05T04:56:46.816Z,15.80
2018-01-05T04:59:13.160Z,18.37
2018-01-05T05:01:39.710Z,26.23
2018-01-05T05:04:06.163Z,35.23
2018-01-05T05:06:32.527Z,29.63
2018-01-05T05:08:58.901Z,24.17
2018-01-05T05:11:25.219Z,23.33
2018-01-05T05:13:51.571Z,24.17
2018-01-05T05:16:17.876Z,24.50
2018-01-05T05:18:44.347Z,24.23
2018-01-05T05:21:10.728Z,23.67
2018-01-05T05:23:37.059Z,26.90
2018-01-05T05:26:03.483Z,28.40
2018-01-05T05:28:29.866Z,27.73
2018-01-05T05:30:56.204Z,25.80
2018-01-05T05:33:22.603Z,26.00
2018-01-05T05:35:49.040Z,27.57
2018-01-05T05:38:15.326Z,25.37
2018-01-05T05:40:41.755Z,42.13
2018-01-05T05:43:08.188Z,69.37
2018-01-05T05:45:34.553Z,36.63
2018-01-05T05:48:00.987Z,35.03
2018-01-05T05:50:27.448Z,35.63
2018-01-05T05:52:53.789Z,46.17
2018-01-05T05:55:20.333Z,48.83
2018-01-05T05:57:46.664Z,46.23
2018-01-05T06:00:13.091Z,44.63
2018-01-05T06:02:39.580Z,42.80
2018-01-05T06:05:06.022Z,39.73
2018-01-05T06:07:32.416Z,48.57
2018-01-05T06:09:58.870Z,46.60
2018-01-05T06:12:25.188Z,39.03
2018-01-05T06:14:51.575Z,45.97
2018-01-05T06:17:17.966Z,30.53
2018-01-05T06:19:44.330Z,28.00
2018-01-05T06:22:10.703Z,28.17
2018-01-05T06:24:37.123Z,27.03
2018-01-05T06:27:03.523Z,29.07
2018-01-05T06:29:29.879Z,31.03
2018-01-05T06:31:56.276Z,33.00
2018-01-05T06:34:22.690Z,32.17
2018-01-05T06:36:49.038Z,31.47
2018-01-05T06:39:15.384Z,34.07
2018-01-05T06:41:41.888Z,34.57
2018-01-05T06:44:08.252Z,36.77
2018-01-05T06:46:34.608Z,35.57
2018-01-05T06:49:00.963Z,39.30
2018-01-05T06:51:27.272Z,42.30
2018-01-05T06:53:53.800Z,42.87
2018-01-05T06:56:20.252Z,40.93
2018-01-05T06:58:46.616Z,42.07
2018-01-05T07:01:12.987Z,45.07
2018-01-05T07:03:39.480Z,47.43
2018-01-05T07:06:05.880Z,45.70
2018-01-05T07:08:32.240Z,45.00
2018-01-05T07:10:58.629Z,45.17
2018-01-05T07:13:24.984Z,41.80
2018-01-05T07:15:51.328Z,44.77
2018-01-05T07:18:17.748Z,38.67
2018-01-05T07:20:44.077Z,36.17
2018-01-05T07:23:10.640Z,36.70
2018-01-05T07:25:37.004Z,36.33
2018-01-05T07:28:03.366Z,37.60
2018-01-05T07:30:29.750Z,37.23
2018-01-05T07:32:56.183Z,30.10
2018-01-05T07:35:22.600Z,27.13
2018-01-05T07:37:49.202Z,25.17
2018-01-05T07:40:15.615Z,30.07
2018-01-05T07:42:41.999Z,37.50
2018-01-05T07:45:08.416Z,38.23
2018-01-05T07:47:34.820Z,40.83
2018-01-05T07:50:01.204Z,41.77
2018-01-05T07:52:27.565Z,42.87
2018-01-05T07:54:53.948Z,41.60
2018-01-05T07:57:20.296Z,41.93
2018-01-05T07:59:46.680Z,44.90
2018-01-05T08:02:13.069Z,43.03
2018-01-05T08:04:39.408Z,59.03
2018-01-05T08:07:05.783Z,59.10
2018-01-05T08:09:32.160Z,54.30
2018-01-05T08:11:59.087Z,41.10
2018-01-05T08:14:25.759Z,38.43
2018-01-05T08:16:52.125Z,38.13
2018-01-05T08:19:18.507Z,41.73
2018-01-05T08:21:44.868Z,43.00
2018-01-05T08:24:11.284Z,46.17
2018-01-05T08:26:37.639Z,46.10
2018-01-05T08:29:04.044Z,45.93
2018-01-05T08:31:30.415Z,50.27
2018-01-05T08:33:56.716Z,53.47
2018-01-05T08:36:23.115Z,53.00
2018-01-05T08:38:49.507Z,47.20
2018-01-05T08:41:15.863Z,41.17
2018-01-05T08:43:42.482Z,39.17
2018-01-05T08:46:08.797Z,40.07
2018-01-05T08:48:35.661Z,29.00
2018-01-05T08:51:02.211Z,22.53
2018-01-05T08:53:28.606Z,25.53
2018-01-05T08:55:54.935Z,25.53
2018-01-05T08:58:21.257Z,24.63
2018-01-05T09:00:47.646Z,22.90
2018-01-05T09:03:13.976Z,20.77
2018-01-05T09:05:40.429Z,22.07
2018-01-05T09:08:07.002Z,22.10
2018-01-05T09:10:33.339Z,26.33
2018-01-05T09:12:59.862Z,21.57
2018-01-05T09:15:26.304Z,14.07
2018-01-05T09:17:52.616Z,12.80
2018-01-05T09:20:18.988Z,13.67
2018-01-05T09:22:45.367Z,13.27
2018-01-05T09:25:11.715Z,14.70
2018-01-05T09:27:38.194Z,17.37
2018-01-05T09:30:04.577Z,16.50
2018-01-05T09:32:30.930Z,15.20
2018-01-05T09:34:57.336Z,16.03
2018-01-05T09:37:23.692Z,13.77
2018-01-05T09:39:50.143Z,12.47
2018-01-05T09:42:16.624Z,13.13
2018-01-05T09:44:43.029Z,14.30
2018-01-05T09:47:09.417Z,16.40
2018-01-05T09:49:35.850Z,14.90
2018-01-05T09:52:02.224Z,16.67
2018-01-05T09:54:28.551Z,13.97
2018-01-05T09:56:54.898Z,10.83
2018-01-05T09:59:21.252Z,15.93
2018-01-05T10:01:47.613Z,10.37
2018-01-05T10:04:14.066Z,10.43
2018-01-05T10:06:40.572Z,6.07
2018-01-05T10:09:06.956Z,7.23
2018-01-05T10:11:33.379Z,7.13
2018-01-05T10:13:59.820Z,5.10
2018-01-05T10:16:26.316Z,5.10
2018-01-05T10:18:53.277Z,5.20
2018-01-05T10:21:19.644Z,6.67
2018-01-05T10:23:45.933Z,6.20
2018-01-05T10:26:12.400Z,9.40
2018-01-05T10:28:38.826Z,6.10
2018-01-05T10:31:05.140Z,8.63
2018-01-05T10:33:31.552Z,11.10
2018-01-05T10:35:57.908Z,7.33
2018-01-05T10:38:24.609Z,7.60
2018-01-05T10:40:51.144Z,9.37
2018-01-05T10:43:17.440Z,6.00
2018-01-05T10:45:43.859Z,6.07
2018-01-05T10:48:10.388Z,6.50
2018-01-05T10:50:36.732Z,5.93
2018-01-05T10:53:03.125Z,6.63
2018-01-05T10:55:29.481Z,6.50
2018-01-05T10:57:55.846Z,5.80
2018-01-05T11:00:22.263Z,4.70
2018-01-05T11:02:48.659Z,3.83
2018-01-05T11:05:15.032Z,7.03
2018-01-05T11:07:41.452Z,5.80
2018-01-05T11:10:07.840Z,5.50
2018-01-05T11:12:34.189Z,5.87
2018-01-05T11:15:00.520Z,4.90
2018-01-05T11:17:26.892Z,5.37
2018-01-05T11:19:53.272Z,4.83
2018-01-05T11:22:19.650Z,4.77
2018-01-05T11:24:45.983Z,5.00
2018-01-05T11:27:12.383Z,4.97
2018-01-05T11:29:38.771Z,4.50
2018-01-05T11:32:05.153Z,5.00
2018-01-05T11:34:31.470Z,5.17
2018-01-05T11:36:57.806Z,5.50
2018-01-05T11:39:24.271Z,4.90
2018-01-05T11:41:50.652Z,5.83
2018-01-05T11:44:16.975Z,5.17
2018-01-05T11:46:43.369Z,5.30
2018-01-05T11:49:09.692Z,4.73
2018-01-05T11:51:36.032Z,4.13
2018-01-05T11:54:02.431Z,5.07
2018-01-05T11:56:28.823Z,4.80
2018-01-05T11:58:55.183Z,5.20
2018-01-05T12:01:21.652Z,5.40
2018-01-05T12:03:48.138Z,5.57
2018-01-05T12:06:14.500Z,6.43
2018-01-05T12:08:40.977Z,7.33
2018-01-05T12:11:07.368Z,7.43
2018-01-05T12:13:33.796Z,6.90
2018-01-05T12:16:00.280Z,7.30
2018-01-05T12:18:26.647Z,8.40
2018-01-05T12:20:53.100Z,8.60
2018-01-05T12:23:19.566Z,8.23
2018-01-05T12:25:45.964Z,8.03
2018-01-05T12:28:12.371Z,7.70
2018-01-05T12:30:38.808Z,6.80
2018-01-05T12:33:05.233Z,6.73
2018-01-05T12:35:31.699Z,6.20
2018-01-05T12:37:58.244Z,6.87
2018-01-05T12:40:24.660Z,5.93
2018-01-05T12:42:51.027Z,6.23
2018-01-05T12:45:17.531Z,5.87
2018-01-05T12:47:44.061Z,8.60
2018-01-05T12:50:10.533Z,7.70
2018-01-05T12:52:36.987Z,6.97
2018-01-05T12:55:03.543Z,9.47
2018-01-05T12:57:30.030Z,6.10
2018-01-05T12:59:56.488Z,5.60
2018-01-05T13:02:22.897Z,5.23
2018-01-05T13:04:49.434Z,11.53
2018-01-05T13:07:15.926Z,16.80
2018-01-05T13:09:42.388Z,12.53
2018-01-05T13:12:08.831Z,16.10
2018-01-05T13:14:35.420Z,17.03
2018-01-05T13:17:01.972Z,12.37
2018-01-05T13:19:28.468Z,11.97
2018-01-05T13:21:55.073Z,10.63
2018-01-05T13:24:21.501Z,9.67
2018-01-05T13:26:48.059Z,10.03
2018-01-05T13:29:14.564Z,12.47
2018-01-05T13:31:41.190Z,13.80
2018-01-05T13:34:07.615Z,11.53
2018-01-05T13:36:34.090Z,12.20
2018-01-05T13:39:00.567Z,10.57
2018-01-05T13:41:26.980Z,8.40
2018-01-05T13:43:53.436Z,8.40
2018-01-05T13:46:19.820Z,7.07
2018-01-05T13:48:46.227Z,11.60
2018-01-05T13:51:12.676Z,7.50
2018-01-05T13:53:39.092Z,6.67
2018-01-05T13:56:05.663Z,5.90
2018-01-05T13:58:32.126Z,7.23
2018-01-05T14:00:58.611Z,7.83
2018-01-05T14:03:25.034Z,10.53
2018-01-05T14:05:51.477Z,11.30
2018-01-05T14:08:18.122Z,10.43
2018-01-05T14:10:44.535Z,11.10
2018-01-05T14:13:10.996Z,21.20
2018-01-05T14:15:37.406Z,20.77
2018-01-05T14:18:03.820Z,25.93
2018-01-05T14:20:31.434Z,25.43
2018-01-05T14:22:57.856Z,25.87
2018-01-05T14:25:24.546Z,23.07
2018-01-05T14:27:51.033Z,28.30
2018-01-05T14:30:17.464Z,28.57
2018-01-05T14:32:44.054Z,28.67
2018-01-05T14:35:10.545Z,29.67
2018-01-05T14:37:37.057Z,27.67
2018-01-05T14:40:03.800Z,24.20
2018-01-05T14:42:30.220Z,23.93
2018-01-05T14:44:56.652Z,22.53
2018-01-05T14:47:23.111Z,25.47
2018-01-05T14:49:49.528Z,24.50
2018-01-05T14:52:16.017Z,24.40
2018-01-05T14:54:43.380Z,24.17
2018-01-05T14:57:09.868Z,24.60
2018-01-05T14:59:36.407Z,26.23
2018-01-05T15:02:03.007Z,25.90
2018-01-05T15:04:29.557Z,25.17
2018-01-05T15:06:56.045Z,28.60
2018-01-05T15:09:22.432Z,28.70
2018-01-05T15:11:49.024Z,30.03
2018-01-05T15:14:15.438Z,28.93
2018-01-05T15:16:41.789Z,29.47
2018-01-05T15:19:08.213Z,27.97
2018-01-05T15:21:34.638Z,28.90
2018-01-05T15:24:01.155Z,23.50
2018-01-05T15:26:27.684Z,25.73
2018-01-05T15:28:54.175Z,24.33
2018-01-05T15:31:20.828Z,20.60
2018-01-05T15:33:47.368Z,24.10
2018-01-05T15:36:13.782Z,42.17
2018-01-05T15:38:40.231Z,41.70
2018-01-05T15:41:06.760Z,38.57
2018-01-05T15:43:33.177Z,29.47
2018-01-05T15:45:59.771Z,32.00
2018-01-05T15:48:26.260Z,21.30
2018-01-05T15:50:52.675Z,35.80
2018-01-05T15:53:19.232Z,35.50
2018-01-05T15:55:45.712Z,32.63
2018-01-05T15:58:12.145Z,30.67
2018-01-05T16:00:38.568Z,32.40
2018-01-05T16:03:05.115Z,31.87
2018-01-05T16:05:31.536Z,27.90
2018-01-05T16:07:57.927Z,26.53
2018-01-05T16:10:24.388Z,29.10
2018-01-05T16:12:50.949Z,29.13
2018-01-05T16:15:17.356Z,26.47
2018-01-05T16:17:43.844Z,23.73
2018-01-05T16:20:10.296Z,26.20
2018-01-05T16:22:36.724Z,29.43
2018-01-05T16:25:03.187Z,29.23
2018-01-05T16:27:29.630Z,29.73
2018-01-05T16:29:56.018Z,34.93
2018-01-05T16:32:22.488Z,34.97
2018-01-05T16:34:48.936Z,39.33
2018-01-05T16:37:15.360Z,39.63
2018-01-05T16:39:41.783Z,38.90
2018-01-05T16:42:08.164Z,37.57
2018-01-05T16:44:34.591Z,33.43
2018-01-05T16:47:01.064Z,38.43
2018-01-05T16:49:27.472Z,38.73
2018-01-05T16:51:57.048Z,37.97
2018-01-05T16:54:23.540Z,37.83
2018-01-05T16:56:49.988Z,36.90
2018-01-05T16:59:16.387Z,38.23
2018-01-05T17:01:42.888Z,41.70
2018-01-05T17:04:09.345Z,40.40
2018-01-05T17:06:35.761Z,42.63
2018-01-05T17:09:02.316Z,43.53
2018-01-05T17:11:28.776Z,47.93
2018-01-05T17:13:55.228Z,50.07
2018-01-05T17:16:21.647Z,54.67
2018-01-05T17:18:48.057Z,56.53
2018-01-05T17:21:14.467Z,55.13
2018-01-05T17:23:40.908Z,56.03
2018-01-05T17:26:07.300Z,67.10
2018-01-05T17:28:33.709Z,88.67
2018-01-05T17:31:00.149Z,86.93
2018-01-05T17:33:26.494Z,94.00
2018-01-05T17:35:52.912Z,105.00
2018-01-05T17:38:19.426Z,100.83
2018-01-05T17:40:45.860Z,99.20
2018-01-05T17:43:12.375Z,99.53
2018-01-05T17:45:38.828Z,101.27
2018-01-05T17:48:05.384Z,99.77
2018-01-05T17:50:31.828Z,95.50
2018-01-05T17:52:58.309Z,104.43
2018-01-05T17:55:24.716Z,115.00
2018-01-05T17:57:51.136Z,113.90
2018-01-05T18:00:17.909Z,136.67
2018-01-05T18:02:44.667Z,125.87
2018-01-05T18:05:11.489Z,115.80
2018-01-05T18:07:38.091Z,113.07
2018-01-05T18:10:04.612Z,102.47
2018-01-05T18:12:31.293Z,97.47
2018-01-05T18:14:57.756Z,89.97
2018-01-05T18:17:24.572Z,84.10
2018-01-05T18:19:51.084Z,78.13
2018-01-05T18:22:18.087Z,82.87
2018-01-05T18:24:44.543Z,90.83
2018-01-05T18:27:11.162Z,92.30
2018-01-05T18:29:38.017Z,92.80
2018-01-05T18:32:04.714Z,91.10
2018-01-05T18:34:31.353Z,91.87
2018-01-05T18:36:58.181Z,92.50
2018-01-05T18:39:24.673Z,93.57
2018-01-05T18:41:51.356Z,91.80
2018-01-05T18:44:18.552Z,88.40
2018-01-05T18:46:45.296Z,83.07
2018-01-05T18:49:12.068Z,79.50
2018-01-05T18:51:38.834Z,85.63
2018-01-05T18:54:05.264Z,88.93
2018-01-05T18:56:31.776Z,87.13
2018-01-05T18:58:58.219Z,95.17
2018-01-05T19:01:24.691Z,98.87
2018-01-05T19:03:51.138Z,102.67
2018-01-05T19:06:17.596Z,109.00
2018-01-05T19:08:44.456Z,108.10
2018-01-05T19:11:10.916Z,108.07
2018-01-05T19:13:37.376Z,106.70
2018-01-05T19:16:03.755Z,105.83
2018-01-05T19:18:30.174Z,104.77
2018-01-05T19:20:56.607Z,103.90
2018-01-05T19:23:23.061Z,109.70
2018-01-05T19:25:49.429Z,115.77
2018-01-05T19:28:15.903Z,114.23
2018-01-05T19:30:42.302Z,115.13
2018-01-05T19:33:08.747Z,108.87
2018-01-05T19:35:35.176Z,101.17
2018-01-05T19:38:01.660Z,99.03
2018-01-05T19:40:28.109Z,94.70
2018-01-05T19:42:54.530Z,93.30
2018-01-05T19:45:20.957Z,95.30
2018-01-05T19:47:47.452Z,94.17
2018-01-05T19:50:15.196Z,90.10
2018-01-05T19:52:41.648Z,85.87
2018-01-05T19:55:08.045Z,82.10
2018-01-05T19:57:34.540Z,82.23
2018-01-05T20:00:00.908Z,82.63
2018-01-05T20:02:27.283Z,82.53
2018-01-05T20:04:53.807Z,82.03
2018-01-05T20:07:20.173Z,79.70
2018-01-05T20:09:46.703Z,81.57
2018-01-05T20:12:13.254Z,84.97
2018-01-05T20:14:39.643Z,84.37
2018-01-05T20:17:06.096Z,87.27
2018-01-05T20:19:32.536Z,88.13
2018-01-05T20:22:00.245Z,84.60
2018-01-05T20:24:26.854Z,93.27
2018-01-05T20:26:53.292Z,97.50
2018-01-05T20:29:20.006Z,93.83
2018-01-05T20:31:46.535Z,97.47
2018-01-05T20:34:13.866Z,98.20
2018-01-05T20:36:40.769Z,108.53
2018-01-05T20:39:07.348Z,117.37
2018-01-05T20:41:33.835Z,116.77
2018-01-05T20:44:00.218Z,117.60
2018-01-05T20:46:27.532Z,117.87
2018-01-05T20:48:54.327Z,121.47
2018-01-05T20:51:20.745Z,117.83
2018-01-05T20:53:47.279Z,117.70
2018-01-05T20:56:13.716Z,120.10
2018-01-05T20:58:40.120Z,116.90
2018-01-05T21:01:06.612Z,127.47
2018-01-05T21:03:33.139Z,128.40
2018-01-05T21:05:59.811Z,125.03
2018-01-05T21:08:26.263Z,128.80
2018-01-05T21:10:52.695Z,138.63
2018-01-05T21:13:19.208Z,120.23
2018-01-05T21:15:45.588Z,115.50
2018-01-05T21:18:12.065Z,113.47
2018-01-05T21:20:38.511Z,110.20
2018-01-05T21:23:04.977Z,100.90
2018-01-05T21:25:31.432Z,97.93
2018-01-05T21:27:58.653Z,100.53
2018-01-05T21:30:25.216Z,102.83
2018-01-05T21:32:53.490Z,101.17
2018-01-05T21:35:20.232Z,97.43
2018-01-05T21:37:46.720Z,95.03
2018-01-05T21:40:13.132Z,90.60
2018-01-05T21:42:39.635Z,89.20
2018-01-05T21:45:05.989Z,91.93
2018-01-05T21:47:32.414Z,92.93
2018-01-05T21:49:58.761Z,90.47
2018-01-05T21:52:25.233Z,98.03
2018-01-05T21:54:51.632Z,107.27
2018-01-05T21:57:18.028Z,87.43
2018-01-05T21:59:44.464Z,88.53
2018-01-05T22:02:11.200Z,82.70
2018-01-05T22:04:37.567Z,83.67
2018-01-05T22:07:04.017Z,83.07
2018-01-05T22:09:30.484Z,77.70
2018-01-05T22:11:57.128Z,73.73
2018-01-05T22:14:23.508Z,65.70
2018-01-05T22:16:49.935Z,63.60
2018-01-05T22:19:16.336Z,62.83
2018-01-05T22:21:43.647Z,64.60
2018-01-05T22:24:10.071Z,62.33
2018-01-05T22:26:36.439Z,63.40
2018-01-05T22:29:02.799Z,66.97
2018-01-05T22:31:29.236Z,76.83
2018-01-05T22:33:55.687Z,81.73
2018-01-05T22:36:22.096Z,87.10
2018-01-05T22:38:48.592Z,92.40
2018-01-05T22:41:15.027Z,99.93
2018-01-05T22:43:41.419Z,98.47
2018-01-05T22:46:07.835Z,102.73
2018-01-05T22:48:34.279Z,102.40
2018-01-05T22:51:00.660Z,102.33
2018-01-05T22:53:27.096Z,111.37
2018-01-05T22:55:53.556Z,115.47
2018-01-05T22:58:19.967Z,115.47
2018-01-05T23:00:46.436Z,115.37
2018-01-05T23:03:12.827Z,116.27
2018-01-05T23:05:39.269Z,118.60
2018-01-05T23:08:05.728Z,111.47
2018-01-05T23:10:32.168Z,108.97
2018-01-05T23:12:58.596Z,105.13
2018-01-05T23:15:25.040Z,108.93
2018-01-05T23:17:51.432Z,97.30
2018-01-05T23:20:17.853Z,103.73
2018-01-05T23:22:44.256Z,104.60
2018-01-05T23:25:10.652Z,101.50
2018-01-05T23:27:37.043Z,98.83
2018-01-05T23:30:03.553Z,101.27
2018-01-05T23:32:30.006Z,98.67
2018-01-05T23:34:56.566Z,100.27
2018-01-05T23:37:22.951Z,101.33
2018-01-05T23:39:49.379Z,99.83
2018-01-05T23:42:15.723Z,101.60
2018-01-05T23:44:42.160Z,104.27
2018-01-05T23:47:08.616Z,99.67
2018-01-05T23:49:34.965Z,102.23
2018-01-05T23:52:01.434Z,103.63
2018-01-05T23:54:27.827Z,108.67
2018-01-05T23:56:54.281Z,106.07
2018-01-05T23:59:20.672Z,106.77
